Latest Weather Observations for Red Rocks Point

IDW60801

Issued at 12:05 pm WST Monday 28 July 2014 (issued every 30 minutes, with the page automatically refreshed every 10 minutes)

About weather observations | Map of weather stations | Latest weather observations for WA | Other Formats
Station Details ID: 011053 Name: RED ROCKS POINT Lat: -32.20 Lon: 127.53 Height: 3.1 m
Data from the previous 72 hours. | See also: Recent months for locations in Western Australia
Date/Time
WST
Temp
°C
App
Temp
°C
Dew
Point
Rel
Hum
%
Delta-T
°C
Wind Press
QNH
hPa
Press
MSL
hPa
Rain
since 9 am
mm
Dir
 
Spd
km/h
Gust
km/h
Spd
kts
Gust
kts
28/12:00pm 18.4 14.4 9.2 55 4.8 WSW 20 33 11 18 1019.1 1019.1 0.0
28/11:30am 20.0 15.3 7.7 45 6.3 W 22 37 12 20 1019.4 - 0.0
28/11:00am 20.2 16.3 8.8 48 6.0 W 19 32 10 17 1020.0 - 0.0
28/10:30am 18.9 15.0 8.6 51 5.3 W 19 30 10 16 1020.2 - 0.0
28/10:00am 17.8 14.2 8.4 54 4.8 WNW 17 26 9 14 1020.5 - 0.0
28/09:30am 17.0 14.0 9.2 60 4.0 NW 15 26 8 14 1020.7 - 0.0
28/09:00am 15.2 11.1 8.0 62 3.6 NW 19 30 10 16 1020.8 1020.8 0.0
28/08:30am 13.5 10.1 7.5 67 2.9 NW 15 22 8 12 1020.5 - 0.0
28/08:00am 11.2 8.4 7.1 76 2.0 NW 11 19 6 10 1020.5 - 0.0
28/07:30am 8.8 5.4 5.7 81 1.4 NNW 13 19 7 10 1020.5 - 0.0
28/07:00am 7.2 3.2 5.0 86 1.0 NW 15 20 8 11 1020.5 - 0.0
28/06:30am 6.8 2.8 4.8 87 0.9 NNW 15 20 8 11 1020.3 - 0.0
28/06:00am 6.9 2.6 5.1 88 0.8 NNW 17 20 9 11 1020.0 1020.0 0.0
28/05:30am 6.8 2.8 5.1 89 0.7 NNW 15 20 8 11 1019.9 - 0.0
28/05:00am 7.0 2.7 5.2 88 0.8 NNW 17 20 9 11 1019.6 - 0.0
28/04:30am 7.5 3.4 6.0 90 0.7 NW 17 22 9 12 1019.6 - 0.0
28/04:00am 7.3 3.1 5.9 91 0.6 NNW 17 20 9 11 1019.7 - 0.0
28/03:30am 7.4 3.3 6.2 92 0.5 NNW 17 20 9 11 1019.8 - 0.0
28/03:00am 7.1 3.3 5.7 91 0.6 NNW 15 20 8 11 1019.9 1019.9 0.0
28/02:30am 7.0 3.5 5.5 90 0.7 NW 13 15 7 8 1019.7 - 0.0
28/02:00am 8.3 5.1 6.9 91 0.6 NNW 13 17 7 9 1019.7 - 0.0
28/01:30am 7.9 4.2 6.4 90 0.7 NNW 15 17 8 9 1019.6 - 0.0
28/01:00am 7.9 3.4 6.2 89 0.8 N 19 22 10 12 1019.7 - 0.0
28/12:30am 8.2 4.1 6.3 88 0.9 N 17 19 9 10 1019.8 - 0.0
28/12:00am 8.3 4.2 6.1 86 1.0 N 17 20 9 11 1019.9 1019.9 0.0
 
Date/Time
WST
Temp
°C
App
Temp
°C
Dew
Point
Rel
Hum
%
Delta-T
°C
Wind Press
QNH
hPa
Press
MSL
hPa
Rain
since 9 am
mm
Dir
 
Spd
km/h
Gust
km/h
Spd
kts
Gust
kts
27/11:30pm 8.7 4.6 6.3 85 1.1 N 17 19 9 10 1020.0 - 0.0
27/11:00pm 8.9 5.2 6.3 84 1.2 N 15 17 8 9 1020.3 - 0.0
27/10:30pm 8.9 5.2 6.5 85 1.1 NNW 15 17 8 9 1020.4 - 0.0
27/10:00pm 8.8 5.2 6.6 86 1.0 N 15 17 8 9 1020.5 - 0.0
27/09:30pm 8.8 5.2 6.6 86 1.0 NNW 15 17 8 9 1020.7 - 0.0
27/09:00pm 8.8 5.1 6.4 85 1.1 NNW 15 17 8 9 1020.8 1020.8 0.0
27/08:30pm 9.2 6.0 6.8 85 1.1 NNW 13 15 7 8 1020.8 - 0.0
27/08:00pm 9.7 7.0 7.5 86 1.0 NNW 11 13 6 7 1020.6 - 0.0
27/07:30pm 9.8 7.2 7.9 88 0.9 NNW 11 15 6 8 1020.5 - 0.0
27/07:00pm 9.4 7.4 7.2 86 1.0 WNW 7 9 4 5 1020.4 - 0.0
27/06:30pm 10.4 8.7 8.2 86 1.1 W 7 9 4 5 1020.1 - 0.0
27/06:00pm 11.3 9.6 8.5 83 1.4 W 7 9 4 5 1019.9 1019.9 0.0
27/05:30pm 12.3 10.5 9.5 83 1.4 W 9 11 5 6 1019.8 - 0.0
27/05:00pm 13.1 11.7 9.5 79 1.8 W 7 9 4 5 1019.6 - 0.0
27/04:30pm 14.7 13.1 10.1 74 2.4 WSW 9 13 5 7 1019.4 - 0.0
27/04:00pm 15.2 13.2 10.2 72 2.6 WSW 11 17 6 9 1019.2 - 0.0
27/03:30pm 15.7 13.2 10.9 73 2.6 WSW 15 20 8 11 1019.2 - 0.0
27/03:00pm 16.0 13.8 12.0 77 2.2 WSW 15 20 8 11 1019.1 1019.1 0.0
27/02:30pm 15.8 13.6 12.0 78 2.1 WSW 15 22 8 12 1019.1 - 0.0
27/02:00pm 15.8 13.1 11.8 77 2.2 WSW 17 28 9 15 1019.1 - 0.0
27/01:30pm 16.4 13.4 12.4 77 2.2 WSW 20 32 11 17 1019.0 - 0.0
27/01:00pm 16.6 13.2 12.4 76 2.3 WSW 22 30 12 16 1018.9 - 0.0
27/12:30pm 16.3 12.6 11.5 73 2.6 WSW 22 33 12 18 1019.0 - 0.0
27/12:00pm 16.9 12.7 11.0 68 3.2 WSW 24 37 13 20 1019.3 1019.3 0.0
27/11:30am 18.8 15.4 11.1 61 4.2 WSW 20 33 11 18 1019.5 - 0.0
27/11:00am 19.6 16.7 8.3 48 5.9 NW 13 19 7 10 1019.7 - 0.0
27/10:30am 16.6 13.2 6.1 50 5.1 NW 13 20 7 11 1019.8 - 0.0
27/10:00am 14.5 10.1 4.8 52 4.5 NW 17 22 9 12 1020.0 - 0.0
27/09:30am 13.8 9.0 4.7 54 4.2 NW 19 26 10 14 1020.3 - 0.0
27/09:00am 13.0 8.5 4.4 56 3.9 NW 17 26 9 14 1019.9 1019.9 0.0
27/08:30am 12.2 7.3 3.9 57 3.7 NW 19 26 10 14 1019.7 - 0.0
27/08:00am 11.6 7.0 3.9 59 3.4 NNW 17 26 9 14 1019.1 - 0.0
27/07:30am 10.9 6.2 3.2 59 3.4 NW 17 24 9 13 1019.0 - 0.0
27/07:00am 10.4 5.7 3.0 60 3.2 NNW 17 24 9 13 1018.7 - 0.0
27/06:30am 9.9 5.1 2.7 61 3.1 NNW 17 22 9 12 1018.6 - 0.0
27/06:00am 9.4 5.0 2.7 63 2.8 NNW 15 20 8 11 1018.5 1018.5 0.0
27/05:30am 8.8 4.0 2.6 65 2.6 NNW 17 20 9 11 1018.2 - 0.0
27/05:00am 8.4 3.6 2.4 66 2.5 NNW 17 22 9 12 1018.0 - 0.0
27/04:30am 9.1 5.0 2.4 63 2.8 NNW 13 19 7 10 1017.9 - 0.0
27/04:00am 9.6 5.5 2.5 61 3.0 NW 13 15 7 8 1018.0 - 0.0
27/03:30am 8.7 5.4 2.5 65 2.6 NNW 9 13 5 7 1018.0 - 0.0
27/03:00am 9.3 5.6 2.6 63 2.8 NW 11 15 6 8 1018.3 1018.3 0.0
27/02:30am 10.4 6.1 3.0 60 3.2 WNW 15 32 8 17 1018.4 - 0.0
27/02:00am 11.7 6.6 3.0 55 3.8 N 19 26 10 14 1017.6 - 0.0
27/01:30am 12.0 7.3 3.0 54 3.9 N 17 24 9 13 1017.8 - 0.0
27/01:00am 12.3 7.6 3.0 53 4.1 N 17 22 9 12 1018.0 - 0.0
27/12:30am 12.3 7.6 3.0 53 4.1 NNW 17 26 9 14 1018.1 - 0.0
27/12:00am 11.8 7.1 3.3 56 3.7 N 17 22 9 12 1018.4 1018.4 0.0
 
Date/Time
WST
Temp
°C
App
Temp
°C
Dew
Point
Rel
Hum
%
Delta-T
°C
Wind Press
QNH
hPa
Press
MSL
hPa
Rain
since 9 am
mm
Dir
 
Spd
km/h
Gust
km/h
Spd
kts
Gust
kts
26/11:30pm 12.1 7.8 3.3 55 3.9 N 15 22 8 12 1018.6 - 0.0
26/11:00pm 12.2 8.0 3.7 56 3.8 N 15 22 8 12 1018.9 - 0.0
26/10:30pm 11.2 7.4 3.7 60 3.3 N 13 19 7 10 1019.3 - 0.0
26/10:00pm 11.3 7.8 3.6 59 3.4 N 11 15 6 8 1019.5 - 0.0
26/09:30pm 11.9 8.5 3.9 58 3.6 N 11 17 6 9 1019.5 - 0.0
26/09:00pm 12.3 8.9 4.0 57 3.7 NNW 11 17 6 9 1019.7 1019.7 0.0
26/08:30pm 12.7 8.9 3.9 55 4.0 N 13 15 7 8 1019.5 - 0.0
26/08:00pm 13.7 9.9 4.0 52 4.4 NNW 13 19 7 10 1019.4 - 0.0
26/07:30pm 13.2 9.1 4.4 55 4.0 N 15 24 8 13 1018.8 - 0.0
26/07:00pm 12.8 9.5 4.3 56 3.9 N 11 15 6 8 1019.2 - 0.0
26/06:30pm 15.2 11.5 4.6 49 4.9 N 13 20 7 11 1019.0 - 0.0
26/06:00pm 16.0 11.0 4.4 46 5.4 N 20 30 11 16 1018.2 1018.2 0.0
26/05:30pm 16.7 11.9 4.7 45 5.7 N 19 26 10 14 1018.5 - 0.0
26/05:00pm 17.3 13.2 4.6 43 6.0 N 15 20 8 11 1018.5 - 0.0
26/04:30pm 18.7 14.2 4.1 38 6.9 N 17 28 9 15 1018.6 - 0.0
26/04:00pm 20.1 14.9 3.3 33 7.9 N 20 30 11 16 1018.6 - 0.0
26/03:30pm 20.7 14.7 3.4 32 8.2 N 24 35 13 19 1018.6 - 0.0
26/03:00pm 21.1 15.2 3.8 32 8.3 N 24 37 13 20 1018.9 1018.9 0.0
26/02:30pm 21.2 15.0 4.3 33 8.2 NNW 26 39 14 21 1018.8 - 0.0
26/02:00pm 21.4 15.6 4.5 33 8.2 N 24 37 13 20 1019.0 - 0.0
26/01:30pm 21.2 15.4 4.3 33 8.2 NNW 24 35 13 19 1019.4 - 0.0
26/01:00pm 21.1 15.7 4.6 34 8.0 NNW 22 35 12 19 1019.8 - 0.0
26/12:30pm 21.0 15.9 6.2 38 7.4 NNW 22 37 12 20 1020.3 - 0.0
26/12:00pm 20.2 14.6 5.4 38 7.3 NNW 24 37 13 20 1020.9 1020.9 0.0
26/11:30am 19.9 14.9 6.3 41 6.8 NNW 22 39 12 21 1021.7 - 0.0
26/11:00am 19.1 14.1 6.6 44 6.2 N 22 37 12 20 1022.3 - 0.0
26/10:30am 18.5 13.6 7.0 47 5.8 N 22 39 12 21 1023.0 - 0.0
26/10:00am 17.6 13.4 7.6 52 5.0 N 19 28 10 15 1023.5 - 0.0
26/09:30am 16.3 11.7 6.4 52 4.8 N 20 30 11 16 1023.8 - 0.0
26/09:00am 14.3 10.5 7.6 64 3.3 N 17 30 9 16 1024.0 1024.0 0.0
26/08:30am 12.2 8.3 7.1 71 2.5 N 17 24 9 13 1024.1 - 0.0
26/08:00am 10.3 5.8 6.1 75 1.9 N 19 26 10 14 1024.0 - 0.0
26/07:30am 8.3 4.4 5.2 81 1.4 N 15 20 8 11 1023.8 - 0.0
26/07:00am 6.7 2.7 4.7 87 0.9 N 15 20 8 11 1023.7 - 0.0
26/06:30am 5.7 1.5 4.0 89 0.7 N 15 20 8 11 1023.6 - 0.0
26/06:00am 5.6 1.4 3.8 88 0.8 N 15 20 8 11 1023.5 1023.5 0.0
26/05:30am 6.0 1.8 4.0 87 0.8 N 15 20 8 11 1023.3 - 0.0
26/05:00am 6.1 1.6 4.1 87 0.9 N 17 22 9 12 1023.2 - 0.0
26/04:30am 6.2 1.7 4.0 86 0.9 N 17 24 9 13 1023.1 - 0.0
26/04:00am 6.3 1.8 4.3 87 0.9 N 17 24 9 13 1022.9 - 0.0
26/03:30am 6.6 1.8 4.6 87 0.9 N 19 24 10 13 1022.8 - 0.0
26/03:00am 6.3 1.9 4.6 89 0.7 N 17 22 9 12 1023.0 1023.0 0.0
26/02:30am 6.2 1.8 4.5 89 0.7 N 17 20 9 11 1023.1 - 0.0
26/02:00am 6.1 1.7 4.6 90 0.6 N 17 20 9 11 1023.2 - 0.0
26/01:30am 6.1 2.1 4.7 91 0.6 N 15 19 8 10 1023.4 - 0.0
26/01:00am 6.5 2.2 5.3 92 0.5 N 17 20 9 11 1023.4 - 0.0
26/12:30am 6.8 2.6 5.7 93 0.5 N 17 19 9 10 1023.5 - 0.0
26/12:00am 6.9 3.1 5.8 93 0.5 N 15 17 8 9 1023.7 1023.7 0.0
 
Date/Time
WST
Temp
°C
App
Temp
°C
Dew
Point
Rel
Hum
%
Delta-T
°C
Wind Press
QNH
hPa
Press
MSL
hPa
Rain
since 9 am
mm
Dir
 
Spd
km/h
Gust
km/h
Spd
kts
Gust
kts
25/11:30pm 7.3 3.9 6.1 92 0.5 N 13 15 7 8 1023.9 - 0.0
25/11:00pm 8.3 5.2 7.1 92 0.6 N 13 15 7 8 1024.1 - 0.0
25/10:30pm 8.9 5.9 7.7 92 0.6 N 13 17 7 9 1024.3 - 0.0
25/10:00pm 9.0 6.0 7.8 92 0.6 N 13 17 7 9 1024.3 - 0.0
25/09:30pm 9.0 6.0 7.8 92 0.6 N 13 15 7 8 1024.3 - 0.0
25/09:00pm 9.3 6.4 8.1 92 0.6 N 13 17 7 9 1024.3 1024.3 0.0
25/08:30pm 9.5 6.6 8.3 92 0.6 N 13 15 7 8 1024.3 - 0.0
25/08:00pm 9.9 7.1 8.7 92 0.6 N 13 17 7 9 1023.9 - 0.0
25/07:30pm 9.9 7.5 8.7 92 0.6 NNE 11 13 6 7 1023.7 - 0.0
25/07:00pm 9.9 9.6 8.5 91 0.7 CALM 0 0 0 0 1023.3 - 0.0
25/06:30pm 9.6 9.1 8.0 90 0.8 CALM 0 0 0 0 1023.1 - 0.0
25/06:00pm 10.0 9.6 8.1 88 0.9 CALM 0 0 0 0 1023.0 1023.0 0.0
25/05:30pm 10.6 10.3 8.5 87 1.0 CALM 0 0 0 0 1022.7 - 0.0
25/05:00pm 11.3 11.0 8.5 83 1.4 CALM 0 0 0 0 1022.5 - 0.0
25/04:30pm 13.4 12.1 9.8 79 1.8 SSW 7 9 4 5 1022.4 - 0.0
25/04:00pm 14.2 12.1 9.8 75 2.3 SSW 11 13 6 7 1022.3 - 0.0
25/03:30pm 15.2 13.3 10.4 73 2.5 S 11 13 6 7 1022.0 - 0.0
25/03:00pm 14.6 12.6 10.2 75 2.3 SSW 11 15 6 8 1022.1 1022.1 0.0
25/02:30pm 15.0 13.1 10.4 74 2.4 SSW 11 15 6 8 1022.0 - 0.0
25/02:00pm 15.4 13.1 10.6 73 2.5 SW 13 19 7 10 1021.9 - 0.0
25/01:30pm 16.2 13.1 10.3 68 3.1 SSW 17 20 9 11 1021.9 - 0.0
25/01:00pm 16.2 13.3 9.6 65 3.4 SW 15 19 8 10 1022.1 - 0.0
25/12:30pm 16.3 13.0 9.5 64 3.5 SSW 17 20 9 11 1022.0 - 0.0

Other Formats:

Comma delimited format used in spreadsheet applications
http://www.bom.gov.au/fwo/IDW60801/IDW60801.94644.axf

JavaScript Object Notation format (JSON) in row-major order
http://www.bom.gov.au/fwo/IDW60801/IDW60801.94644.json